<?xml version="1.0" encoding="utf-8"?>
<gpx xmlns:xsi="http://www.w3.org/2001/XMLSchema-instance" xmlns:xsd="http://www.w3.org/2001/XMLSchema" version="1.1" creator="Shapelink.com" xmlns="http://www.topografix.com/GPX/1/1" xmlns:gpxtpx="http://www.garmin.com/xmlschemas/TrackPointExtension/v1">
  <metadata>
    <name>Övrigt 2.24 km, 2020-07-25</name>
    <desc></desc>
    <author><name>Marian Moron</name></author> 
    <time>2020-07-25T11:35:13Z</time>
  </metadata>
  <trk>
    <name>Övrigt 2.24 km, 2020-07-25</name>
    <trkseg>
      <trkpt lat="51.215397354318" lon="4.483384265082">
        <ele>0.6</ele>
        <time>2020-07-25T11:35:13Z</time>
      </trkpt>
      <trkpt lat="51.215451920487" lon="4.48410359974">
        <ele>2.6</ele>
        <time>2020-07-25T11:35:51Z</time>
      </trkpt>
      <trkpt lat="51.215339100113" lon="4.484766859487">
        <ele>1.8</ele>
        <time>2020-07-25T11:36:35Z</time>
      </trkpt>
      <trkpt lat="51.21492947666" lon="4.48500297761">
        <ele>1.8</ele>
        <time>2020-07-25T11:37:20Z</time>
      </trkpt>
      <trkpt lat="51.214601073818" lon="4.484553875408">
        <ele>6.2</ele>
        <time>2020-07-25T11:38:05Z</time>
      </trkpt>
      <trkpt lat="51.214581711629" lon="4.484295209974">
        <ele>6.8</ele>
        <time>2020-07-25T11:38:22Z</time>
      </trkpt>
      <trkpt lat="51.214545166545" lon="4.483582664655">
        <ele>4.6</ele>
        <time>2020-07-25T11:39:09Z</time>
      </trkpt>
      <trkpt lat="51.214585651122" lon="4.482870538431">
        <ele>7.6</ele>
        <time>2020-07-25T11:39:59Z</time>
      </trkpt>
      <trkpt lat="51.214664273344" lon="4.482700888775">
        <ele>7</ele>
        <time>2020-07-25T11:40:14Z</time>
      </trkpt>
      <trkpt lat="51.215010026719" lon="4.482499220261">
        <ele>4.8</ele>
        <time>2020-07-25T11:40:58Z</time>
      </trkpt>
      <trkpt lat="51.215371957161" lon="4.482884536204">
        <ele>9</ele>
        <time>2020-07-25T11:41:46Z</time>
      </trkpt>
      <trkpt lat="51.215451249935" lon="4.483145464751">
        <ele>8.6</ele>
        <time>2020-07-25T11:42:27Z</time>
      </trkpt>
      <trkpt lat="51.21545837455" lon="4.483220566575">
        <ele>9.2</ele>
        <time>2020-07-25T11:42:36Z</time>
      </trkpt>
      <trkpt lat="51.215449238279" lon="4.483636308815">
        <ele>5.8</ele>
        <time>2020-07-25T11:42:58Z</time>
      </trkpt>
      <trkpt lat="51.21544663989" lon="4.483799252951">
        <ele>6.2</ele>
        <time>2020-07-25T11:43:08Z</time>
      </trkpt>
      <trkpt lat="51.215437838895" lon="4.484090356338">
        <ele>5.2</ele>
        <time>2020-07-25T11:43:25Z</time>
      </trkpt>
      <trkpt lat="51.21543909618" lon="4.484427476356">
        <ele>4.8</ele>
        <time>2020-07-25T11:43:45Z</time>
      </trkpt>
      <trkpt lat="51.215403640743" lon="4.48460064641">
        <ele>5.2</ele>
        <time>2020-07-25T11:43:56Z</time>
      </trkpt>
      <trkpt lat="51.215403305467" lon="4.484738361027">
        <ele>9</ele>
        <time>2020-07-25T11:44:31Z</time>
      </trkpt>
      <trkpt lat="51.215450495564" lon="4.484705503979">
        <ele>10.2</ele>
        <time>2020-07-25T11:44:39Z</time>
      </trkpt>
      <trkpt lat="51.215494919634" lon="4.48464004134">
        <ele>10.4</ele>
        <time>2020-07-25T11:44:47Z</time>
      </trkpt>
      <trkpt lat="51.215489890494" lon="4.484581870954">
        <ele>11.6</ele>
        <time>2020-07-25T11:44:51Z</time>
      </trkpt>
      <trkpt lat="51.215485280449" lon="4.484477097204">
        <ele>11.6</ele>
        <time>2020-07-25T11:45:04Z</time>
      </trkpt>
      <trkpt lat="51.215447561899" lon="4.484111897821">
        <ele>8.2</ele>
        <time>2020-07-25T11:45:33Z</time>
      </trkpt>
      <trkpt lat="51.215458458369" lon="4.484246427316">
        <ele>7.8</ele>
        <time>2020-07-25T11:45:42Z</time>
      </trkpt>
      <trkpt lat="51.215454602695" lon="4.484500650343">
        <ele>6.8</ele>
        <time>2020-07-25T11:45:58Z</time>
      </trkpt>
      <trkpt lat="51.215425768959" lon="4.484623780454">
        <ele>6.2</ele>
        <time>2020-07-25T11:46:06Z</time>
      </trkpt>
      <trkpt lat="51.215058809377" lon="4.485003312886">
        <ele>5.8</ele>
        <time>2020-07-25T11:46:45Z</time>
      </trkpt>
      <trkpt lat="51.214744991041" lon="4.484850091754">
        <ele>6</ele>
        <time>2020-07-25T11:47:16Z</time>
      </trkpt>
      <trkpt lat="51.21464616844" lon="4.484672060198">
        <ele>7.2</ele>
        <time>2020-07-25T11:47:29Z</time>
      </trkpt>
      <trkpt lat="51.214595960859" lon="4.484453460246">
        <ele>7.8</ele>
        <time>2020-07-25T11:47:42Z</time>
      </trkpt>
      <trkpt lat="51.214549525133" lon="4.483894303697">
        <ele>7.2</ele>
        <time>2020-07-25T11:48:15Z</time>
      </trkpt>
      <trkpt lat="51.214556901205" lon="4.483651312416">
        <ele>6</ele>
        <time>2020-07-25T11:48:32Z</time>
      </trkpt>
      <trkpt lat="51.214585902579" lon="4.482942455133">
        <ele>4.2</ele>
        <time>2020-07-25T11:49:20Z</time>
      </trkpt>
      <trkpt lat="51.214674331624" lon="4.482708432485">
        <ele>5</ele>
        <time>2020-07-25T11:49:38Z</time>
      </trkpt>
      <trkpt lat="51.214862002365" lon="4.482626457503">
        <ele>4.6</ele>
        <time>2020-07-25T11:49:59Z</time>
      </trkpt>
      <trkpt lat="51.214863846383" lon="4.482547164729">
        <ele>6.2</ele>
        <time>2020-07-25T11:50:08Z</time>
      </trkpt>
      <trkpt lat="51.214837862493" lon="4.482574657361">
        <ele>6.6</ele>
        <time>2020-07-25T11:50:11Z</time>
      </trkpt>
      <trkpt lat="51.21459420066" lon="4.483066926348">
        <ele>3</ele>
        <time>2020-07-25T11:50:51Z</time>
      </trkpt>
      <trkpt lat="51.21458749514" lon="4.483278317866">
        <ele>4.4</ele>
        <time>2020-07-25T11:51:04Z</time>
      </trkpt>
      <trkpt lat="51.21458833333" lon="4.483352413862">
        <ele>4.6</ele>
        <time>2020-07-25T11:51:09Z</time>
      </trkpt>
      <trkpt lat="51.214598643067" lon="4.48344142964">
        <ele>4.6</ele>
        <time>2020-07-25T11:51:15Z</time>
      </trkpt>
      <trkpt lat="51.214588081873" lon="4.483451823196">
        <ele>5</ele>
        <time>2020-07-25T11:51:24Z</time>
      </trkpt>
      <trkpt lat="51.214592021366" lon="4.483380493227">
        <ele>4.4</ele>
        <time>2020-07-25T11:51:29Z</time>
      </trkpt>
      <trkpt lat="51.214592189004" lon="4.483148985149">
        <ele>6.8</ele>
        <time>2020-07-25T11:51:42Z</time>
      </trkpt>
      <trkpt lat="51.214614652496" lon="4.482954357431">
        <ele>7.2</ele>
        <time>2020-07-25T11:51:54Z</time>
      </trkpt>
      <trkpt lat="51.214632505943" lon="4.482852265889">
        <ele>8.4</ele>
        <time>2020-07-25T11:52:01Z</time>
      </trkpt>
      <trkpt lat="51.214666201181" lon="4.482747743596">
        <ele>9</ele>
        <time>2020-07-25T11:52:08Z</time>
      </trkpt>
      <trkpt lat="51.214693274718" lon="4.482709857408">
        <ele>9.4</ele>
        <time>2020-07-25T11:52:12Z</time>
      </trkpt>
      <trkpt lat="51.215067442734" lon="4.482538782829">
        <ele>5.6</ele>
        <time>2020-07-25T11:53:11Z</time>
      </trkpt>
      <trkpt lat="51.215400874716" lon="4.482990315782">
        <ele>7.2</ele>
        <time>2020-07-25T11:53:50Z</time>
      </trkpt>
      <trkpt lat="51.215460805301" lon="4.483504629166">
        <ele>7.8</ele>
        <time>2020-07-25T11:54:28Z</time>
      </trkpt>
      <trkpt lat="51.215457368722" lon="4.483213190503">
        <ele>6.6</ele>
        <time>2020-07-25T11:54:51Z</time>
      </trkpt>
      <trkpt lat="51.215459799473" lon="4.483230876312">
        <ele>5.4</ele>
        <time>2020-07-25T11:54:56Z</time>
      </trkpt>
      <trkpt lat="51.215444376777" lon="4.483363897065">
        <ele>4.2</ele>
        <time>2020-07-25T11:55:09Z</time>
      </trkpt>
      <trkpt lat="51.215478323472" lon="4.484091278347">
        <ele>3.2</ele>
        <time>2020-07-25T11:55:51Z</time>
      </trkpt>
      <trkpt lat="51.215476227997" lon="4.484417250438">
        <ele>2</ele>
        <time>2020-07-25T11:56:11Z</time>
      </trkpt>
      <trkpt lat="51.215197026908" lon="4.48493424603">
        <ele>0.6</ele>
        <time>2020-07-25T11:56:51Z</time>
      </trkpt>
      <trkpt lat="51.214904414779" lon="4.484895018738">
        <ele>3</ele>
        <time>2020-07-25T11:57:24Z</time>
      </trkpt>
      <trkpt lat="51.214964764459" lon="4.484887223571">
        <ele>3.4</ele>
        <time>2020-07-25T11:57:31Z</time>
      </trkpt>
      <trkpt lat="51.214978343137" lon="4.484863754251">
        <ele>3.4</ele>
        <time>2020-07-25T11:57:33Z</time>
      </trkpt>
      <trkpt lat="51.2150686162" lon="4.484483718905">
        <ele>4.4</ele>
        <time>2020-07-25T11:58:05Z</time>
      </trkpt>
      <trkpt lat="51.21511471665" lon="4.484993422244">
        <ele>3.2</ele>
        <time>2020-07-25T11:58:45Z</time>
      </trkpt>
      <trkpt lat="51.214704590283" lon="4.484750850058">
        <ele>5</ele>
        <time>2020-07-25T11:59:28Z</time>
      </trkpt>
      <trkpt lat="51.214596631411" lon="4.48419328607">
        <ele>5.6</ele>
        <time>2020-07-25T12:00:04Z</time>
      </trkpt>
      <trkpt lat="51.21459755342" lon="4.483843677021">
        <ele>4.2</ele>
        <time>2020-07-25T12:00:32Z</time>
      </trkpt>
      <trkpt lat="51.214590093529" lon="4.483872678395">
        <ele>4.2</ele>
        <time>2020-07-25T12:00:34Z</time>
      </trkpt>
      <trkpt lat="51.214582885095" lon="4.484058002204">
        <ele>4</ele>
        <time>2020-07-25T12:00:46Z</time>
      </trkpt>
      <trkpt lat="51.21459000971" lon="4.484192028785">
        <ele>3.4</ele>
        <time>2020-07-25T12:00:55Z</time>
      </trkpt>
      <trkpt lat="51.214603672207" lon="4.484596120184">
        <ele>0</ele>
        <time>2020-07-25T12:01:22Z</time>
      </trkpt>
      <trkpt lat="51.214675337452" lon="4.484822180027">
        <ele>0</ele>
        <time>2020-07-25T12:01:39Z</time>
      </trkpt>
      <trkpt lat="51.21472998744" lon="4.484872806703">
        <ele>0</ele>
        <time>2020-07-25T12:01:45Z</time>
      </trkpt>
      <trkpt lat="51.214784888885" lon="4.48490490938">
        <ele>0</ele>
        <time>2020-07-25T12:02:17Z</time>
      </trkpt>
      <trkpt lat="51.214694280546" lon="4.484754705732">
        <ele>3.6</ele>
        <time>2020-07-25T12:02:35Z</time>
      </trkpt>
      <trkpt lat="51.214677600565" lon="4.484671389646">
        <ele>4.6</ele>
        <time>2020-07-25T12:02:41Z</time>
      </trkpt>
      <trkpt lat="51.214644994974" lon="4.484531328097">
        <ele>6.2</ele>
        <time>2020-07-25T12:03:01Z</time>
      </trkpt>
      <trkpt lat="51.214631500115" lon="4.484482377801">
        <ele>6.4</ele>
        <time>2020-07-25T12:03:05Z</time>
      </trkpt>
      <trkpt lat="51.214593613927" lon="4.48430392715">
        <ele>5.8</ele>
        <time>2020-07-25T12:03:19Z</time>
      </trkpt>
      <trkpt lat="51.21458162781" lon="4.4841823896">
        <ele>3.4</ele>
        <time>2020-07-25T12:03:30Z</time>
      </trkpt>
      <trkpt lat="51.21458330419" lon="4.484111227269">
        <ele>1.8</ele>
        <time>2020-07-25T12:03:35Z</time>
      </trkpt>
      <trkpt lat="51.21459671523" lon="4.483858596803">
        <ele>1.8</ele>
        <time>2020-07-25T12:03:56Z</time>
      </trkpt>
      <trkpt lat="51.214585064389" lon="4.483900171027">
        <ele>1.4</ele>
        <time>2020-07-25T12:04:16Z</time>
      </trkpt>
      <trkpt lat="51.214598140153" lon="4.484121537006">
        <ele>1.4</ele>
        <time>2020-07-25T12:04:32Z</time>
      </trkpt>
      <trkpt lat="51.214596799049" lon="4.484188424568">
        <ele>2.2</ele>
        <time>2020-07-25T12:04:37Z</time>
      </trkpt>
      <trkpt lat="51.214606857329" lon="4.484267717342">
        <ele>0</ele>
        <time>2020-07-25T12:04:47Z</time>
      </trkpt>
      <trkpt lat="51.214641474576" lon="4.484444323975">
        <ele>0</ele>
        <time>2020-07-25T12:04:57Z</time>
      </trkpt>
      <trkpt lat="51.214669470122" lon="4.484565190973">
        <ele>0</ele>
        <time>2020-07-25T12:05:06Z</time>
      </trkpt>
      <trkpt lat="51.214805592178" lon="4.484817569982">
        <ele>0</ele>
        <time>2020-07-25T12:05:26Z</time>
      </trkpt>
      <trkpt lat="51.215083871258" lon="4.484943717577">
        <ele>2.2</ele>
        <time>2020-07-25T12:05:53Z</time>
      </trkpt>
      <trkpt lat="51.215132234821" lon="4.48500297761">
        <ele>2.4</ele>
        <time>2020-07-25T12:06:00Z</time>
      </trkpt>
      <trkpt lat="51.215140029988" lon="4.485129711938">
        <ele>1.6</ele>
        <time>2020-07-25T12:06:10Z</time>
      </trkpt>
      <trkpt lat="51.215244552281" lon="4.485252255316">
        <ele>1.8</ele>
        <time>2020-07-25T12:06:31Z</time>
      </trkpt>
      <trkpt lat="51.2152613999" lon="4.485250662755">
        <ele>1.8</ele>
        <time>2020-07-25T12:06:33Z</time>
      </trkpt>
      <trkpt lat="51.215330802032" lon="4.485240688294">
        <ele>3.4</ele>
        <time>2020-07-25T12:06:40Z</time>
      </trkpt>
      <trkpt lat="51.215352511153" lon="4.485238676638">
        <ele>4</ele>
        <time>2020-07-25T12:06:42Z</time>
      </trkpt>
      <trkpt lat="51.215415375403" lon="4.485242951407">
        <ele>3.6</ele>
        <time>2020-07-25T12:06:49Z</time>
      </trkpt>
      <trkpt lat="51.215502379525" lon="4.485201293364">
        <ele>2.8</ele>
        <time>2020-07-25T12:07:03Z</time>
      </trkpt>
      <trkpt lat="51.215531464718" lon="4.485133986707">
        <ele>2.6</ele>
        <time>2020-07-25T12:07:09Z</time>
      </trkpt>
      <trkpt lat="51.2155547664" lon="4.48486719083">
        <ele>4.4</ele>
        <time>2020-07-25T12:07:27Z</time>
      </trkpt>
      <trkpt lat="51.215572703666" lon="4.484593521795">
        <ele>5</ele>
        <time>2020-07-25T12:07:44Z</time>
      </trkpt>
      <trkpt lat="51.215575804969" lon="4.484174091519">
        <ele>8.2</ele>
        <time>2020-07-25T12:08:13Z</time>
      </trkpt>
      <trkpt lat="51.215560382273" lon="4.483678972686">
        <ele>4</ele>
        <time>2020-07-25T12:08:44Z</time>
      </trkpt>
      <trkpt lat="51.215530794166" lon="4.482962739331">
        <ele>0.8</ele>
        <time>2020-07-25T12:09:29Z</time>
      </trkpt>
      <trkpt lat="51.215529704519" lon="4.482945807893">
        <ele>1.2</ele>
        <time>2020-07-25T12:09:30Z</time>
      </trkpt>
      <trkpt lat="51.215542445007" lon="4.482341640541">
        <ele>2.8</ele>
        <time>2020-07-25T12:10:07Z</time>
      </trkpt>
      <trkpt lat="51.215593406959" lon="4.482316243384">
        <ele>1.4</ele>
        <time>2020-07-25T12:10:13Z</time>
      </trkpt>
      <trkpt lat="51.215755932" lon="4.482279782119">
        <ele>0</ele>
        <time>2020-07-25T12:10:33Z</time>
      </trkpt>
      <trkpt lat="51.215798344414" lon="4.482269472382">
        <ele>1.4</ele>
        <time>2020-07-25T12:10:57Z</time>
      </trkpt>
    </trkseg>
  </trk>
</gpx>